Terminal Aerodrome Forecast
Issued by NWS Sioux Falls, SD

Home | Current Version | Previous Version | Text Only | Print | Product List | Glossary On
Versions: 1 2 3 4 5 6 7 8 9 10 11 12 13 14 15 16 17 18 19 20 21 22 23 24 25 26 27 28 29 30 31 32 33 34 35 36 37 38 39 40 41 42 43
341
FTUS43 KFSD 051724
TAFSUX
TAF
KSUX 051724Z 0518/0618 19015G23KT P6SM BKN200
     FM052000 22015KT P6SM BKN120
     FM052200 23008KT P6SM BKN100
     FM052300 28009KT P6SM BKN080
     FM060300 30015G24KT P6SM BKN060
     FM060900 29015G24KT P6SM SCT200=

USA.gov is the U.S. government's official web portal to all federal, state and local government web resources and services.